Time;durP1;ratioP1;P1;durP2;ratioP2;P2;SDS_P1;SDS_P2;PMS_P1;PMS_P2;Temp;Humidity;BMP_temperature;BMP_pressure;BME280_temperature;BME280_humidity;BME280_pressure;Samples;Min_cycle;Max_cycle;Signal;HPM_P1;HPM_P2
2023/10/26 00:01:37;;;;;;;56.58;35.20;;;;;;;;;;5072710;28;20041;-86
2023/10/26 00:04:03;;;;;;;58.63;37.75;;;;;;;;;;5043093;28;20418;-86
2023/10/26 00:06:29;;;;;;;63.75;37.88;;;;;;;;;;5071668;28;20051;-87
2023/10/26 00:08:55;;;;;;;65.05;37.88;;;;;;;;;;5072889;28;20046;-87
2023/10/26 00:11:22;;;;;;;54.85;36.90;;;;;;;;;;5039765;28;20103;-87
2023/10/26 00:13:48;;;;;;;60.85;39.30;;;;;;;;;;5053970;28;21321;-86
2023/10/26 00:16:14;;;;;;;67.20;39.00;;;;;;;;;;5042424;28;20044;-88
2023/10/26 00:18:40;;;;;;;64.57;39.15;;;;;;;;;;5075341;28;20484;-87
2023/10/26 00:21:06;;;;;;;66.72;39.67;;;;;;;;;;5057729;28;20058;-87
2023/10/26 00:23:32;;;;;;;60.42;37.88;;;;;;;;;;5040229;28;20033;-87
2023/10/26 00:25:58;;;;;;;58.75;37.30;;;;;;;;;;5049678;28;20475;-87
2023/10/26 00:28:24;;;;;;;58.53;37.58;;;;;;;;;;5053571;28;20143;-87
2023/10/26 00:30:50;;;;;;;63.45;39.13;;;;;;;;;;5054700;28;20086;-87
2023/10/26 00:33:16;;;;;;;66.10;36.42;;;;;;;;;;5072095;28;20083;-88
2023/10/26 00:35:42;;;;;;;56.40;37.72;;;;;;;;;;5073331;28;20066;-87
2023/10/26 00:38:08;;;;;;;61.75;37.65;;;;;;;;;;5055857;28;20499;-86
2023/10/26 00:40:34;;;;;;;65.97;38.05;;;;;;;;;;5072537;28;20159;-86
2023/10/26 00:43:01;;;;;;;57.83;36.67;;;;;;;;;;5055528;28;20044;-87
2023/10/26 00:45:31;;;;;;;61.60;37.20;;;;;;;;;;5074692;28;20257;-87
2023/10/26 00:47:58;;;;;;;60.25;36.20;;;;;;;;;;5076554;28;20072;-89
2023/10/26 00:50:24;;;;;;;61.35;37.15;;;;;;;;;;5055485;28;20055;-87
2023/10/26 00:52:50;;;;;;;67.80;37.00;;;;;;;;;;5040882;28;20048;-87
2023/10/26 00:55:17;;;;;;;66.53;38.50;;;;;;;;;;5073070;28;20024;-87
2023/10/26 00:57:43;;;;;;;61.25;36.90;;;;;;;;;;5054286;28;20067;-87
2023/10/26 01:00:10;;;;;;;65.15;37.75;;;;;;;;;;5072569;28;20036;-88
2023/10/26 01:02:37;;;;;;;66.75;39.35;;;;;;;;;;5055386;28;20044;-86
2023/10/26 01:05:03;;;;;;;66.05;37.50;;;;;;;;;;5071112;28;20111;-86
2023/10/26 01:07:29;;;;;;;63.63;37.25;;;;;;;;;;5072973;28;20080;-87
2023/10/26 01:09:56;;;;;;;67.68;38.70;;;;;;;;;;5074037;28;20551;-86
2023/10/26 01:12:22;;;;;;;70.60;37.10;;;;;;;;;;5057303;28;20073;-86
2023/10/26 01:14:48;;;;;;;66.53;36.75;;;;;;;;;;5074140;28;20068;-86
2023/10/26 01:17:15;;;;;;;69.78;40.15;;;;;;;;;;5074962;28;20113;-87
2023/10/26 01:19:46;;;;;;;64.00;36.85;;;;;;;;;;5053074;28;20102;-86
2023/10/26 01:22:13;;;;;;;71.10;38.03;;;;;;;;;;5056378;28;20036;-86
2023/10/26 01:24:39;;;;;;;68.45;37.30;;;;;;;;;;5071578;28;20044;-86
2023/10/26 01:27:05;;;;;;;66.30;37.08;;;;;;;;;;5071462;28;20048;-87
2023/10/26 01:29:32;;;;;;;68.55;37.08;;;;;;;;;;5057407;28;20391;-88
2023/10/26 01:31:58;;;;;;;69.20;38.88;;;;;;;;;;5056662;28;20578;-87
2023/10/26 01:34:24;;;;;;;68.20;38.08;;;;;;;;;;5055430;28;20040;-87
2023/10/26 01:36:50;;;;;;;61.13;36.35;;;;;;;;;;5054112;28;20194;-86
2023/10/26 01:39:17;;;;;;;71.22;37.83;;;;;;;;;;5072311;28;20044;-86
2023/10/26 01:41:43;;;;;;;63.72;36.67;;;;;;;;;;5054147;28;20115;-88
2023/10/26 01:44:09;;;;;;;70.72;36.88;;;;;;;;;;5068555;28;20119;-86
2023/10/26 01:46:36;;;;;;;70.38;37.13;;;;;;;;;;5037133;28;20119;-86
2023/10/26 01:49:02;;;;;;;67.38;37.85;;;;;;;;;;5034513;28;20049;-85
2023/10/26 01:51:29;;;;;;;65.13;37.30;;;;;;;;;;5038622;28;20044;-86
2023/10/26 01:53:55;;;;;;;71.60;37.90;;;;;;;;;;5048712;28;20481;-87
2023/10/26 01:56:22;;;;;;;69.97;37.13;;;;;;;;;;5068088;28;20099;-87
2023/10/26 01:58:48;;;;;;;66.95;35.53;;;;;;;;;;5036242;28;20102;-85
2023/10/26 02:01:14;;;;;;;70.10;36.40;;;;;;;;;;5053625;28;20573;-85
2023/10/26 02:03:40;;;;;;;61.33;35.75;;;;;;;;;;5038707;28;20116;-86
2023/10/26 02:06:06;;;;;;;70.10;35.83;;;;;;;;;;5030169;28;20049;-86
2023/10/26 02:08:33;;;;;;;69.18;36.38;;;;;;;;;;5050034;28;20052;-86
2023/10/26 02:10:59;;;;;;;59.25;35.53;;;;;;;;;;5050476;28;20059;-86
2023/10/26 02:13:25;;;;;;;63.85;35.83;;;;;;;;;;5069038;28;20086;-85
2023/10/26 02:15:51;;;;;;;65.82;35.72;;;;;;;;;;5035644;28;20041;-85
2023/10/26 02:18:17;;;;;;;63.80;36.40;;;;;;;;;;5035953;28;22201;-86
2023/10/26 02:20:43;;;;;;;68.70;37.20;;;;;;;;;;5053948;28;20495;-86
2023/10/26 02:23:09;;;;;;;65.70;35.13;;;;;;;;;;5051488;28;20100;-85
2023/10/26 02:25:35;;;;;;;64.60;36.33;;;;;;;;;;5054593;28;20028;-85
2023/10/26 02:28:01;;;;;;;70.32;36.92;;;;;;;;;;5051322;28;20377;-84
2023/10/26 02:30:27;;;;;;;68.68;37.90;;;;;;;;;;5055823;28;21728;-86
2023/10/26 02:32:53;;;;;;;70.38;38.15;;;;;;;;;;5032780;28;20178;-84
2023/10/26 02:35:20;;;;;;;67.00;36.85;;;;;;;;;;5068335;28;20119;-85
2023/10/26 02:37:47;;;;;;;72.10;39.40;;;;;;;;;;5068542;28;20048;-85
2023/10/26 02:40:13;;;;;;;64.88;38.72;;;;;;;;;;5068559;28;21674;-86
2023/10/26 02:42:39;;;;;;;72.72;37.20;;;;;;;;;;5067640;28;20020;-85
2023/10/26 02:45:07;;;;;;;77.93;37.65;;;;;;;;;;5034983;28;20055;-86
2023/10/26 02:47:33;;;;;;;74.50;38.08;;;;;;;;;;5049106;28;20033;-86
2023/10/26 02:49:59;;;;;;;73.10;37.80;;;;;;;;;;5051477;28;20061;-86
2023/10/26 02:52:25;;;;;;;70.97;37.13;;;;;;;;;;5066563;28;20044;-85
2023/10/26 02:54:51;;;;;;;65.75;36.28;;;;;;;;;;5050243;28;20562;-86
2023/10/26 02:57:17;;;;;;;72.72;37.38;;;;;;;;;;5047835;28;20036;-87
2023/10/26 02:59:43;;;;;;;71.00;37.67;;;;;;;;;;5066464;28;20040;-87
2023/10/26 03:02:09;;;;;;;76.60;36.97;;;;;;;;;;5050899;28;20033;-87
2023/10/26 03:04:37;;;;;;;68.40;37.13;;;;;;;;;;5051931;28;20441;-84
2023/10/26 03:07:03;;;;;;;74.57;36.85;;;;;;;;;;5069426;28;20051;-86
2023/10/26 03:09:29;;;;;;;68.63;36.95;;;;;;;;;;5050820;28;20044;-85
2023/10/26 03:11:55;;;;;;;66.65;36.53;;;;;;;;;;5047497;28;20043;-85
2023/10/26 03:14:22;;;;;;;66.20;36.25;;;;;;;;;;5050593;28;20127;-86
2023/10/26 03:16:48;;;;;;;66.15;37.00;;;;;;;;;;5067475;28;20036;-85
2023/10/26 03:19:15;;;;;;;72.43;37.58;;;;;;;;;;5041621;28;21258;-86
2023/10/26 03:21:41;;;;;;;77.82;36.67;;;;;;;;;;5064867;28;20052;-85
2023/10/26 03:24:07;;;;;;;76.70;36.85;;;;;;;;;;5050496;28;20040;-86
2023/10/26 03:26:33;;;;;;;79.47;37.78;;;;;;;;;;5073118;28;20035;-86
2023/10/26 03:28:59;;;;;;;72.93;37.17;;;;;;;;;;5042009;28;20039;-87
2023/10/26 03:31:25;;;;;;;81.35;36.67;;;;;;;;;;5037676;28;20515;-87
2023/10/26 03:33:51;;;;;;;75.38;38.00;;;;;;;;;;5072186;28;20040;-87
2023/10/26 03:36:18;;;;;;;82.03;38.58;;;;;;;;;;5039544;28;20042;-87
2023/10/26 03:38:45;;;;;;;76.30;38.35;;;;;;;;;;5056482;28;20049;-86
2023/10/26 03:41:12;;;;;;;74.22;37.80;;;;;;;;;;5056396;28;20159;-87
2023/10/26 03:43:38;;;;;;;74.78;39.03;;;;;;;;;;5057121;28;20037;-85
2023/10/26 03:46:04;;;;;;;77.63;38.75;;;;;;;;;;5060524;28;20419;-85
2023/10/26 03:48:31;;;;;;;75.18;39.45;;;;;;;;;;5057529;28;20033;-86
2023/10/26 03:50:57;;;;;;;75.43;39.90;;;;;;;;;;5059727;28;20040;-86
2023/10/26 03:53:23;;;;;;;80.03;39.80;;;;;;;;;;5047925;28;20017;-86
2023/10/26 03:55:49;;;;;;;79.10;40.05;;;;;;;;;;5073638;28;20098;-85
2023/10/26 03:58:17;;;;;;;81.45;39.35;;;;;;;;;;5077055;28;20484;-86
2023/10/26 04:00:45;;;;;;;80.88;38.97;;;;;;;;;;5076553;28;20045;-87
2023/10/26 04:03:11;;;;;;;71.03;38.25;;;;;;;;;;5041115;28;20046;-87
2023/10/26 04:05:38;;;;;;;74.03;39.63;;;;;;;;;;5062935;28;20063;-86
2023/10/26 04:08:05;;;;;;;79.95;38.45;;;;;;;;;;5055549;28;20060;-85
2023/10/26 04:10:31;;;;;;;81.63;40.38;;;;;;;;;;5055724;28;20032;-86
2023/10/26 04:12:57;;;;;;;81.68;39.40;;;;;;;;;;5054266;28;20037;-86
2023/10/26 04:15:23;;;;;;;79.05;40.47;;;;;;;;;;5055531;28;20503;-86
2023/10/26 04:17:50;;;;;;;80.20;41.28;;;;;;;;;;5053104;28;20781;-86
2023/10/26 04:20:16;;;;;;;78.55;42.17;;;;;;;;;;5059192;28;20097;-85
2023/10/26 04:22:42;;;;;;;78.82;41.97;;;;;;;;;;5071236;28;20177;-85
2023/10/26 04:25:09;;;;;;;81.30;40.20;;;;;;;;;;5074007;28;20086;-86
2023/10/26 04:27:35;;;;;;;80.15;39.58;;;;;;;;;;5044243;28;20497;-86
2023/10/26 04:30:01;;;;;;;74.32;40.72;;;;;;;;;;5070164;28;20407;-85
2023/10/26 04:32:28;;;;;;;76.75;40.22;;;;;;;;;;5054405;28;20090;-86
2023/10/26 04:34:54;;;;;;;72.15;38.70;;;;;;;;;;5071010;28;20039;-86
2023/10/26 04:37:20;;;;;;;71.57;39.03;;;;;;;;;;5050364;28;20547;-86
2023/10/26 04:39:46;;;;;;;76.03;39.22;;;;;;;;;;5070087;28;20040;-85
2023/10/26 04:42:12;;;;;;;66.80;37.22;;;;;;;;;;5054752;28;20040;-87
2023/10/26 04:44:39;;;;;;;68.47;38.35;;;;;;;;;;5074260;28;20040;-87
2023/10/26 04:47:05;;;;;;;77.20;38.30;;;;;;;;;;5066479;28;20045;-87
2023/10/26 04:49:33;;;;;;;70.68;38.72;;;;;;;;;;5056592;28;20109;-88
2023/10/26 04:51:59;;;;;;;73.15;38.17;;;;;;;;;;5069768;28;20067;-87
2023/10/26 04:54:27;;;;;;;75.78;37.60;;;;;;;;;;5052545;28;20076;-86
2023/10/26 04:56:54;;;;;;;72.38;37.70;;;;;;;;;;5071671;28;20049;-86
2023/10/26 04:59:20;;;;;;;63.25;36.03;;;;;;;;;;5069901;28;20033;-86
2023/10/26 05:01:46;;;;;;;71.00;35.65;;;;;;;;;;5070268;28;20117;-87
2023/10/26 05:04:13;;;;;;;62.92;33.58;;;;;;;;;;5055012;28;20034;-87
2023/10/26 05:06:39;;;;;;;61.92;34.35;;;;;;;;;;5072636;28;20037;-87
2023/10/26 05:09:05;;;;;;;64.43;34.60;;;;;;;;;;5052721;28;20024;-87
2023/10/26 05:11:31;;;;;;;68.57;35.20;;;;;;;;;;5071943;28;20446;-87
2023/10/26 05:13:57;;;;;;;64.47;36.15;;;;;;;;;;5071788;28;20045;-86
2023/10/26 05:16:23;;;;;;;67.80;33.58;;;;;;;;;;5055318;28;20044;-86
2023/10/26 05:18:49;;;;;;;60.70;33.97;;;;;;;;;;5068208;28;20499;-86
2023/10/26 05:21:16;;;;;;;59.95;33.30;;;;;;;;;;5072912;28;20037;-85
2023/10/26 05:23:43;;;;;;;60.05;32.38;;;;;;;;;;5070179;28;20408;-85
2023/10/26 05:26:09;;;;;;;59.03;33.95;;;;;;;;;;5027456;28;20063;-83
2023/10/26 05:28:36;;;;;;;57.15;33.08;;;;;;;;;;5053610;28;20499;-84
2023/10/26 05:31:02;;;;;;;58.97;32.53;;;;;;;;;;5055008;28;20043;-85
2023/10/26 05:33:28;;;;;;;60.13;32.53;;;;;;;;;;5053641;28;20079;-83
2023/10/26 05:35:54;;;;;;;67.47;33.97;;;;;;;;;;5051752;28;20040;-86
2023/10/26 05:38:21;;;;;;;57.53;32.05;;;;;;;;;;5056098;28;20480;-85
2023/10/26 05:40:57;;;;;;;57.15;32.42;;;;;;;;;;5069614;28;20143;-86
2023/10/26 05:43:23;;;;;;;62.20;32.00;;;;;;;;;;5033079;28;20032;-86
2023/10/26 05:45:49;;;;;;;59.67;32.25;;;;;;;;;;5052019;28;20111;-86
2023/10/26 05:48:18;;;;;;;67.15;33.28;;;;;;;;;;5068895;28;20090;-85
2023/10/26 05:50:45;;;;;;;61.20;31.33;;;;;;;;;;5069803;28;20571;-86
2023/10/26 05:53:11;;;;;;;59.72;31.88;;;;;;;;;;5051176;28;20037;-83
2023/10/26 05:55:39;;;;;;;59.95;32.70;;;;;;;;;;5055344;28;20039;-85
2023/10/26 05:58:05;;;;;;;63.97;32.55;;;;;;;;;;5056654;28;20044;-85
2023/10/26 06:00:32;;;;;;;62.13;32.80;;;;;;;;;;5055552;28;20029;-85
2023/10/26 06:02:58;;;;;;;59.53;31.42;;;;;;;;;;5052622;28;20578;-84
2023/10/26 06:05:24;;;;;;;65.25;32.92;;;;;;;;;;5035916;28;20141;-85
2023/10/26 06:07:50;;;;;;;62.88;32.22;;;;;;;;;;5049474;28;20431;-85
2023/10/26 06:10:16;;;;;;;60.00;30.67;;;;;;;;;;5036417;28;20122;-83
2023/10/26 06:12:42;;;;;;;61.05;31.48;;;;;;;;;;5070066;28;20411;-84
2023/10/26 06:15:10;;;;;;;62.90;32.15;;;;;;;;;;5052002;28;20041;-86
2023/10/26 06:17:36;;;;;;;60.40;31.27;;;;;;;;;;5044538;28;20044;-85
2023/10/26 06:20:03;;;;;;;57.50;31.17;;;;;;;;;;5048786;28;20047;-86
2023/10/26 06:22:29;;;;;;;62.20;33.42;;;;;;;;;;5051114;28;20531;-86
2023/10/26 06:24:55;;;;;;;63.85;32.25;;;;;;;;;;5065300;28;20064;-87
2023/10/26 06:27:21;;;;;;;67.38;33.30;;;;;;;;;;5067269;28;20032;-87
2023/10/26 06:29:51;;;;;;;63.83;31.52;;;;;;;;;;5039014;28;20048;-86
2023/10/26 06:32:17;;;;;;;68.18;32.10;;;;;;;;;;5052552;28;20044;-91
2023/10/26 06:34:44;;;;;;;62.05;30.00;;;;;;;;;;5035221;28;20044;-91
2023/10/26 06:37:10;;;;;;;58.47;29.58;;;;;;;;;;5073560;28;20044;-91
2023/10/26 06:39:36;;;;;;;62.00;30.80;;;;;;;;;;5053518;28;20044;-90
2023/10/26 06:42:02;;;;;;;56.80;29.98;;;;;;;;;;5065210;28;20532;-91
2023/10/26 06:44:28;;;;;;;56.15;31.08;;;;;;;;;;5055504;28;21148;-90
2023/10/26 06:46:54;;;;;;;58.65;31.20;;;;;;;;;;5056724;28;20110;-91
2023/10/26 06:49:20;;;;;;;62.45;31.13;;;;;;;;;;5054333;28;20056;-91
2023/10/26 06:51:48;;;;;;;62.35;31.63;;;;;;;;;;5035403;28;20040;-92
2023/10/26 06:54:15;;;;;;;58.60;30.45;;;;;;;;;;5071110;28;20040;-91
2023/10/26 06:56:42;;;;;;;64.13;30.38;;;;;;;;;;5057962;28;20019;-92
2023/10/26 06:59:08;;;;;;;62.13;30.45;;;;;;;;;;5053512;28;20071;-91
2023/10/26 07:01:34;;;;;;;58.97;31.15;;;;;;;;;;5034462;28;20047;-92
2023/10/26 07:04:00;;;;;;;57.42;29.70;;;;;;;;;;5037404;28;20032;-90
2023/10/26 07:06:26;;;;;;;56.78;29.90;;;;;;;;;;5072840;28;20433;-91
2023/10/26 07:08:52;;;;;;;59.40;31.92;;;;;;;;;;5052710;28;20032;-91
2023/10/26 07:11:18;;;;;;;64.75;32.47;;;;;;;;;;5037773;28;20159;-90
2023/10/26 07:13:45;;;;;;;61.13;30.75;;;;;;;;;;5054495;28;20044;-85
2023/10/26 07:16:12;;;;;;;58.25;30.77;;;;;;;;;;5070245;28;20064;-85
2023/10/26 07:18:39;;;;;;;51.30;28.92;;;;;;;;;;5066281;28;20918;-84
2023/10/26 07:21:08;;;;;;;54.60;29.33;;;;;;;;;;5067547;28;20080;-85
2023/10/26 07:23:34;;;;;;;51.83;28.38;;;;;;;;;;5068216;28;20131;-84
2023/10/26 07:26:00;;;;;;;48.25;27.38;;;;;;;;;;5042826;28;20056;-85
2023/10/26 07:28:27;;;;;;;48.92;27.08;;;;;;;;;;5053323;28;20040;-87
2023/10/26 07:30:53;;;;;;;46.97;27.90;;;;;;;;;;5049085;28;20036;-86
2023/10/26 07:33:19;;;;;;;47.42;29.05;;;;;;;;;;5067861;28;20078;-85
2023/10/26 07:36:03;;;;;;;55.38;29.48;;;;;;;;;;5069967;28;20036;-86
2023/10/26 07:38:29;;;;;;;;;;;;;;;;;;5066651;28;20040;-86
2023/10/26 07:40:56;;;;;;;50.88;28.58;;;;;;;;;;5051397;28;20407;-87
2023/10/26 07:43:23;;;;;;;50.05;29.10;;;;;;;;;;5051904;28;20036;-87
2023/10/26 07:45:51;;;;;;;50.25;28.08;;;;;;;;;;5049526;28;20047;-86
2023/10/26 07:48:17;;;;;;;47.38;28.83;;;;;;;;;;5050417;28;20147;-86
2023/10/26 07:50:43;;;;;;;48.58;26.95;;;;;;;;;;5053126;28;20059;-86
2023/10/26 07:53:10;;;;;;;46.92;28.00;;;;;;;;;;5036491;28;20033;-86
2023/10/26 07:55:36;;;;;;;45.25;27.77;;;;;;;;;;5050410;28;20107;-86
2023/10/26 07:58:02;;;;;;;50.15;27.38;;;;;;;;;;5047000;28;20056;-87
2023/10/26 08:00:28;;;;;;;45.85;27.13;;;;;;;;;;5063422;28;20131;-86
2023/10/26 08:02:55;;;;;;;49.13;28.25;;;;;;;;;;5044296;28;20186;-87
2023/10/26 08:05:21;;;;;;;54.30;28.77;;;;;;;;;;5064594;28;20496;-87
2023/10/26 08:07:47;;;;;;;49.15;27.80;;;;;;;;;;5070228;28;20037;-88
2023/10/26 08:10:13;;;;;;;48.25;29.20;;;;;;;;;;5051950;28;20044;-87
2023/10/26 08:12:39;;;;;;;51.35;29.42;;;;;;;;;;5071138;28;20036;-87
2023/10/26 08:15:06;;;;;;;52.55;29.23;;;;;;;;;;5044813;28;20036;-87
2023/10/26 08:17:36;;;;;;;54.75;30.23;;;;;;;;;;5075238;28;20550;-88
2023/10/26 08:20:04;;;;;;;53.85;30.00;;;;;;;;;;5058539;28;20039;-87
2023/10/26 08:22:33;;;;;;;53.90;31.20;;;;;;;;;;5059674;28;20076;-88
2023/10/26 08:25:00;;;;;;;49.85;29.42;;;;;;;;;;5053220;28;20408;-88
2023/10/26 08:27:26;;;;;;;47.88;30.10;;;;;;;;;;5054044;28;20047;-89
2023/10/26 08:29:52;;;;;;;52.55;29.27;;;;;;;;;;5056334;28;20495;-87
2023/10/26 08:32:18;;;;;;;49.80;29.88;;;;;;;;;;5038339;28;20036;-88
2023/10/26 08:34:46;;;;;;;56.00;31.70;;;;;;;;;;5056494;28;20041;-87
2023/10/26 08:37:12;;;;;;;58.63;32.72;;;;;;;;;;5056950;28;20045;-87
2023/10/26 08:39:39;;;;;;;53.17;30.85;;;;;;;;;;5052683;28;20036;-87
2023/10/26 08:42:05;;;;;;;53.95;30.38;;;;;;;;;;5056156;28;20043;-87
2023/10/26 08:44:32;;;;;;;53.63;31.17;;;;;;;;;;5057880;28;20056;-88
2023/10/26 08:47:10;;;;;;;56.58;32.40;;;;;;;;;;5071852;28;20102;-87
2023/10/26 08:49:36;;;;;;;52.63;30.77;;;;;;;;;;5048689;28;20052;-89
2023/10/26 08:52:03;;;;;;;52.67;30.23;;;;;;;;;;5071488;28;20073;-89
2023/10/26 08:54:29;;;;;;;51.72;29.95;;;;;;;;;;5055472;28;20036;-87
2023/10/26 08:56:56;;;;;;;53.65;32.53;;;;;;;;;;5073440;28;20119;-85
2023/10/26 08:59:25;;;;;;;54.10;31.55;;;;;;;;;;5073381;28;20032;-84
2023/10/26 09:01:52;;;;;;;52.78;32.38;;;;;;;;;;5066064;28;20089;-86
2023/10/26 09:04:18;;;;;;;56.88;32.22;;;;;;;;;;5069283;28;20047;-87
2023/10/26 09:06:48;;;;;;;49.70;30.30;;;;;;;;;;5055748;28;20028;-88
2023/10/26 09:09:15;;;;;;;52.25;29.63;;;;;;;;;;5052845;28;20056;-88
2023/10/26 09:11:41;;;;;;;51.45;29.50;;;;;;;;;;5053827;28;20033;-86
2023/10/26 09:14:20;;;;;;;51.95;30.85;;;;;;;;;;5055419;28;20035;-87
2023/10/26 09:16:47;;;;;;;49.72;30.27;;;;;;;;;;5069727;28;20388;-86
2023/10/26 09:19:14;;;;;;;47.65;28.58;;;;;;;;;;5052454;28;20115;-86
2023/10/26 09:21:57;;;;;;;50.15;32.17;;;;;;;;;;5033870;28;20480;-87
2023/10/26 09:24:28;;;;;;;46.85;29.38;;;;;;;;;;5063348;28;20083;-88
2023/10/26 09:26:56;;;;;;;51.83;29.55;;;;;;;;;;5054796;28;20072;-87
2023/10/26 09:29:41;;;;;;;47.92;30.35;;;;;;;;;;5060635;28;20511;-87
2023/10/26 09:32:07;;;;;;;53.33;28.55;;;;;;;;;;5052282;28;20036;-87
2023/10/26 09:34:43;;;;;;;44.70;28.40;;;;;;;;;;5088572;28;20035;-88
2023/10/26 09:37:10;;;;;;;44.05;28.58;;;;;;;;;;5053569;28;20028;-87
2023/10/26 09:39:37;;;;;;;43.15;28.27;;;;;;;;;;5051528;28;20041;-86
2023/10/26 09:42:05;;;;;;;42.67;28.58;;;;;;;;;;5070331;28;20036;-87
2023/10/26 09:44:32;;;;;;;44.55;28.52;;;;;;;;;;5039712;28;20051;-87
2023/10/26 09:46:59;;;;;;;41.83;27.98;;;;;;;;;;5055049;28;20051;-85
2023/10/26 09:49:28;;;;;;;44.55;29.50;;;;;;;;;;5053245;28;20057;-87
2023/10/26 09:51:54;;;;;;;41.63;27.25;;;;;;;;;;5071056;28;20480;-87
2023/10/26 09:54:27;;;;;;;48.15;30.15;;;;;;;;;;5049271;28;20052;-90
2023/10/26 09:57:12;;;;;;;41.05;27.48;;;;;;;;;;5055312;28;20055;-87
2023/10/26 09:59:38;;;;;;;38.42;26.92;;;;;;;;;;5069983;28;20040;-90
2023/10/26 10:02:14;;;;;;;45.47;28.27;;;;;;;;;;5034921;28;20051;-88
2023/10/26 10:04:41;;;;;;;45.60;28.33;;;;;;;;;;5084822;28;20109;-89
2023/10/26 10:07:07;;;;;;;45.20;28.65;;;;;;;;;;5054735;28;20158;-89
2023/10/26 10:09:33;;;;;;;45.88;29.75;;;;;;;;;;5049038;28;20197;-89
2023/10/26 10:12:13;;;;;;;44.58;29.45;;;;;;;;;;5055506;28;20040;-88
2023/10/26 10:14:51;;;;;;;44.67;29.08;;;;;;;;;;5071313;28;20056;-89
2023/10/26 10:17:18;;;;;;;48.95;30.75;;;;;;;;;;5050940;28;20049;-88
2023/10/26 10:19:48;;;;;;;47.28;30.10;;;;;;;;;;5066823;28;20032;-88
2023/10/26 10:22:33;;;;;;;45.65;30.48;;;;;;;;;;5067891;28;20044;-87
2023/10/26 10:24:59;;;;;;;42.42;29.92;;;;;;;;;;5048792;28;20086;-88
2023/10/26 10:27:25;;;;;;;46.05;31.30;;;;;;;;;;5055140;28;20673;-89
2023/10/26 10:29:51;;;;;;;43.72;30.02;;;;;;;;;;5066332;28;20040;-88
2023/10/26 10:32:36;;;;;;;46.70;30.05;;;;;;;;;;5053764;28;20044;-89
2023/10/26 10:35:06;;;;;;;45.42;31.50;;;;;;;;;;5047728;28;20036;-89
2023/10/26 10:37:32;;;;;;;44.85;30.95;;;;;;;;;;5043628;28;20044;-90
2023/10/26 10:40:11;;;;;;;47.83;33.30;;;;;;;;;;5057410;28;20044;-92
2023/10/26 10:42:58;;;;;;;45.97;31.65;;;;;;;;;;5050043;28;20119;-90
2023/10/26 10:45:24;;;;;;;43.20;32.15;;;;;;;;;;5050216;28;20480;-89
2023/10/26 10:47:50;;;;;;;47.97;31.95;;;;;;;;;;5051666;28;20036;-89
2023/10/26 10:50:16;;;;;;;40.88;31.52;;;;;;;;;;5050970;28;20148;-89
2023/10/26 10:52:42;;;;;;;41.75;31.83;;;;;;;;;;5084379;28;20041;-89
2023/10/26 10:55:09;;;;;;;41.90;31.02;;;;;;;;;;5066403;28;20044;-90
2023/10/26 10:57:35;;;;;;;44.40;32.00;;;;;;;;;;5071993;28;20024;-91
2023/10/26 11:00:01;;;;;;;44.80;33.30;;;;;;;;;;5051815;28;20048;-89
2023/10/26 11:02:27;;;;;;;44.15;32.53;;;;;;;;;;5051423;28;20041;-90
2023/10/26 11:04:55;;;;;;;44.85;33.30;;;;;;;;;;5049698;28;20033;-89
2023/10/26 11:07:30;;;;;;;44.10;32.08;;;;;;;;;;5068848;28;20594;-89
2023/10/26 11:09:57;;;;;;;41.42;31.83;;;;;;;;;;5044712;28;20045;-90
2023/10/26 11:12:24;;;;;;;42.42;32.22;;;;;;;;;;5054476;28;20084;-90
2023/10/26 11:14:50;;;;;;;40.03;31.30;;;;;;;;;;5069087;28;20047;-89
2023/10/26 11:17:21;;;;;;;38.55;30.13;;;;;;;;;;5052358;28;20036;-86
2023/10/26 11:19:47;;;;;;;36.97;29.70;;;;;;;;;;5048884;28;20075;-89
2023/10/26 11:22:17;;;;;;;37.33;27.73;;;;;;;;;;5059355;28;20128;-88
2023/10/26 11:24:44;;;;;;;37.65;29.50;;;;;;;;;;5065149;28;20037;-88
2023/10/26 11:27:11;;;;;;;34.00;28.58;;;;;;;;;;5043195;28;20769;-88
2023/10/26 11:29:37;;;;;;;40.05;27.63;;;;;;;;;;5026798;28;20395;-86
2023/10/26 11:32:03;;;;;;;31.75;26.50;;;;;;;;;;5048836;28;20063;-87
2023/10/26 11:34:29;;;;;;;30.75;26.65;;;;;;;;;;5028535;28;20068;-88
2023/10/26 11:36:57;;;;;;;35.13;26.58;;;;;;;;;;5044130;28;20041;-88
2023/10/26 11:39:24;;;;;;;35.03;26.48;;;;;;;;;;5053828;28;20044;-85
2023/10/26 11:41:54;;;;;;;30.67;26.13;;;;;;;;;;5033703;28;20061;-86
2023/10/26 11:44:25;;;;;;;29.75;25.10;;;;;;;;;;5046803;28;20044;-88
2023/10/26 11:46:57;;;;;;;27.70;24.83;;;;;;;;;;5083903;28;20514;-86
2023/10/26 11:49:36;;;;;;;32.25;25.80;;;;;;;;;;5070183;28;20056;-87
2023/10/26 11:52:02;;;;;;;35.35;27.55;;;;;;;;;;5052408;28;20045;-88
2023/10/26 11:54:28;;;;;;;34.25;28.58;;;;;;;;;;5051617;28;20045;-87
2023/10/26 11:56:54;;;;;;;31.65;27.48;;;;;;;;;;5069873;28;20028;-86
2023/10/26 11:59:20;;;;;;;31.17;25.77;;;;;;;;;;5070747;28;20036;-85
2023/10/26 12:01:47;;;;;;;33.47;27.02;;;;;;;;;;5040684;28;20040;-88
2023/10/26 12:04:13;;;;;;;34.75;27.67;;;;;;;;;;5057612;28;20059;-87
2023/10/26 12:06:39;;;;;;;36.15;26.95;;;;;;;;;;5056259;28;20035;-85
2023/10/26 12:09:06;;;;;;;34.58;27.15;;;;;;;;;;5037837;28;20051;-85
2023/10/26 12:11:32;;;;;;;36.58;29.70;;;;;;;;;;5071691;28;20052;-86
2023/10/26 12:13:58;;;;;;;35.22;28.38;;;;;;;;;;5053652;28;20543;-87
2023/10/26 12:16:25;;;;;;;33.63;28.17;;;;;;;;;;5072862;28;20052;-86
2023/10/26 12:18:52;;;;;;;34.35;28.35;;;;;;;;;;5058187;28;20040;-85
2023/10/26 12:21:18;;;;;;;31.23;26.98;;;;;;;;;;5052520;28;20423;-88
2023/10/26 12:23:44;;;;;;;33.42;27.17;;;;;;;;;;5039072;28;20050;-87
2023/10/26 12:26:10;;;;;;;35.05;28.35;;;;;;;;;;5036673;28;20032;-90
2023/10/26 12:28:36;;;;;;;36.90;27.95;;;;;;;;;;5056122;28;20036;-89
2023/10/26 12:31:02;;;;;;;32.60;28.05;;;;;;;;;;5037304;28;20040;-87
2023/10/26 12:33:29;;;;;;;36.15;28.85;;;;;;;;;;5054170;28;20076;-86
2023/10/26 12:35:55;;;;;;;34.90;29.08;;;;;;;;;;5053601;28;20102;-86
2023/10/26 12:38:22;;;;;;;33.15;27.38;;;;;;;;;;5058095;28;20032;-89
2023/10/26 12:40:48;;;;;;;28.90;25.55;;;;;;;;;;5055994;28;20128;-87
2023/10/26 12:43:14;;;;;;;33.63;25.58;;;;;;;;;;5039501;28;20029;-86
2023/10/26 12:45:40;;;;;;;29.02;24.10;;;;;;;;;;5054192;28;20097;-87
2023/10/26 12:48:06;;;;;;;26.23;23.17;;;;;;;;;;5070332;28;20040;-86
2023/10/26 12:50:33;;;;;;;24.42;21.83;;;;;;;;;;5055345;28;20127;-86
2023/10/26 12:52:59;;;;;;;26.35;23.58;;;;;;;;;;5053455;28;20037;-85
2023/10/26 12:55:25;;;;;;;26.00;22.85;;;;;;;;;;5053293;28;20119;-86
2023/10/26 12:57:52;;;;;;;27.30;24.23;;;;;;;;;;5053976;28;20032;-85
2023/10/26 13:00:18;;;;;;;26.30;23.23;;;;;;;;;;5050887;28;20049;-84
2023/10/26 13:02:45;;;;;;;29.65;23.83;;;;;;;;;;5052446;28;20054;-86
2023/10/26 13:05:11;;;;;;;23.75;21.25;;;;;;;;;;5032657;28;20036;-86
2023/10/26 13:07:37;;;;;;;24.42;21.90;;;;;;;;;;5053525;28;20028;-86
2023/10/26 13:10:03;;;;;;;24.45;21.50;;;;;;;;;;5069332;28;20041;-87
2023/10/26 13:12:29;;;;;;;26.60;22.95;;;;;;;;;;5071886;28;20050;-87
2023/10/26 13:14:56;;;;;;;25.50;22.67;;;;;;;;;;5068230;28;20084;-88
2023/10/26 13:17:22;;;;;;;26.42;23.60;;;;;;;;;;5053668;28;20036;-86
2023/10/26 13:19:48;;;;;;;27.02;23.27;;;;;;;;;;5054780;28;20539;-87
2023/10/26 13:22:14;;;;;;;26.02;22.95;;;;;;;;;;5052403;28;20040;-88
2023/10/26 13:24:40;;;;;;;31.23;23.80;;;;;;;;;;5034516;28;20086;-88
2023/10/26 13:27:06;;;;;;;27.67;24.77;;;;;;;;;;5056726;28;20029;-88
2023/10/26 13:29:32;;;;;;;30.75;25.02;;;;;;;;;;5055395;28;20044;-88
2023/10/26 13:31:58;;;;;;;29.38;25.98;;;;;;;;;;5054448;28;20186;-88
2023/10/26 13:34:24;;;;;;;32.38;25.85;;;;;;;;;;5056630;28;20044;-88
2023/10/26 13:36:50;;;;;;;34.78;25.80;;;;;;;;;;5056988;28;20036;-88
2023/10/26 13:39:16;;;;;;;30.17;26.33;;;;;;;;;;5038995;28;20135;-88
2023/10/26 13:41:43;;;;;;;30.48;25.33;;;;;;;;;;5069158;28;20041;-88
2023/10/26 13:44:09;;;;;;;30.35;26.33;;;;;;;;;;5070272;28;20036;-87
2023/10/26 13:46:35;;;;;;;31.80;25.45;;;;;;;;;;5037050;28;20047;-89
2023/10/26 13:49:02;;;;;;;30.25;25.35;;;;;;;;;;5055646;28;20056;-88
2023/10/26 13:51:28;;;;;;;30.17;25.70;;;;;;;;;;5035369;28;20040;-86
2023/10/26 13:53:54;;;;;;;30.67;26.98;;;;;;;;;;5055592;28;20433;-87
2023/10/26 13:56:21;;;;;;;31.45;28.05;;;;;;;;;;5027957;28;20033;-88
2023/10/26 13:58:47;;;;;;;30.10;26.45;;;;;;;;;;5056137;28;20032;-88
2023/10/26 14:01:13;;;;;;;30.67;27.17;;;;;;;;;;5055076;28;20048;-88
2023/10/26 14:03:39;;;;;;;32.38;27.85;;;;;;;;;;5057937;28;20044;-91
2023/10/26 14:06:07;;;;;;;31.88;28.48;;;;;;;;;;5053517;28;20049;-87
2023/10/26 14:08:33;;;;;;;34.80;29.17;;;;;;;;;;5069829;28;20033;-89
2023/10/26 14:10:59;;;;;;;33.70;29.38;;;;;;;;;;5051949;28;20404;-87
2023/10/26 14:13:25;;;;;;;36.55;29.42;;;;;;;;;;5051406;28;20612;-87
2023/10/26 14:15:51;;;;;;;38.67;31.30;;;;;;;;;;5053679;28;20499;-87
2023/10/26 14:18:18;;;;;;;35.50;29.95;;;;;;;;;;5048332;28;20092;-89